sensor_id;sensor_type;location;lat;lon;timestamp;temperature;humidity
43647;DHT22;56152;49.996;18.980;2023-04-30T00:01:50;10.80;93.90
43647;DHT22;56152;49.996;18.980;2023-04-30T00:06:52;10.80;93.90
43647;DHT22;56152;49.996;18.980;2023-04-30T00:11:55;10.80;93.90
43647;DHT22;56152;49.996;18.980;2023-04-30T00:16:59;10.80;93.90
43647;DHT22;56152;49.996;18.980;2023-04-30T00:22:02;10.70;94.00
43647;DHT22;56152;49.996;18.980;2023-04-30T00:27:05;10.70;94.10
43647;DHT22;56152;49.996;18.980;2023-04-30T00:32:12;10.70;94.10
43647;DHT22;56152;49.996;18.980;2023-04-30T00:37:14;10.70;94.20
43647;DHT22;56152;49.996;18.980;2023-04-30T00:42:16;10.60;94.10
43647;DHT22;56152;49.996;18.980;2023-04-30T00:47:19;10.60;94.10
43647;DHT22;56152;49.996;18.980;2023-04-30T00:52:21;10.60;94.20
43647;DHT22;56152;49.996;18.980;2023-04-30T00:57:24;10.50;94.20
43647;DHT22;56152;49.996;18.980;2023-04-30T01:02:29;10.50;94.30
43647;DHT22;56152;49.996;18.980;2023-04-30T01:07:32;10.40;94.30
43647;DHT22;56152;49.996;18.980;2023-04-30T01:12:38;10.40;94.30
43647;DHT22;56152;49.996;18.980;2023-04-30T01:17:51;10.40;94.30
43647;DHT22;56152;49.996;18.980;2023-04-30T01:23:05;10.40;94.30
43647;DHT22;56152;49.996;18.980;2023-04-30T01:28:14;10.40;94.30
43647;DHT22;56152;49.996;18.980;2023-04-30T01:33:16;10.40;94.30
43647;DHT22;56152;49.996;18.980;2023-04-30T01:38:25;10.40;94.40
43647;DHT22;56152;49.996;18.980;2023-04-30T01:43:35;10.30;94.40
43647;DHT22;56152;49.996;18.980;2023-04-30T01:48:44;10.40;94.40
43647;DHT22;56152;49.996;18.980;2023-04-30T01:53:47;10.30;94.40
43647;DHT22;56152;49.996;18.980;2023-04-30T01:58:52;10.30;94.40
43647;DHT22;56152;49.996;18.980;2023-04-30T02:03:55;10.30;94.40
43647;DHT22;56152;49.996;18.980;2023-04-30T02:08:57;10.30;94.40
43647;DHT22;56152;49.996;18.980;2023-04-30T02:14:05;10.30;94.40
43647;DHT22;56152;49.996;18.980;2023-04-30T02:19:07;10.30;94.40
43647;DHT22;56152;49.996;18.980;2023-04-30T02:24:15;10.30;94.50
43647;DHT22;56152;49.996;18.980;2023-04-30T02:29:21;10.30;94.50
43647;DHT22;56152;49.996;18.980;2023-04-30T02:34:23;10.30;94.50
43647;DHT22;56152;49.996;18.980;2023-04-30T02:39:25;10.20;94.80
43647;DHT22;56152;49.996;18.980;2023-04-30T02:44:28;10.20;94.50
43647;DHT22;56152;49.996;18.980;2023-04-30T02:49:30;10.20;94.50
43647;DHT22;56152;49.996;18.980;2023-04-30T02:54:35;10.10;94.60
43647;DHT22;56152;49.996;18.980;2023-04-30T02:59:42;10.10;94.60
43647;DHT22;56152;49.996;18.980;2023-04-30T03:04:47;10.10;94.70
43647;DHT22;56152;49.996;18.980;2023-04-30T03:09:52;10.10;94.70
43647;DHT22;56152;49.996;18.980;2023-04-30T03:14:55;10.00;94.70
43647;DHT22;56152;49.996;18.980;2023-04-30T03:19:57;9.90;94.80
43647;DHT22;56152;49.996;18.980;2023-04-30T03:24:59;9.80;95.10
43647;DHT22;56152;49.996;18.980;2023-04-30T03:30:04;9.70;94.90
43647;DHT22;56152;49.996;18.980;2023-04-30T03:35:09;9.60;95.00
43647;DHT22;56152;49.996;18.980;2023-04-30T03:40:12;9.50;95.00
43647;DHT22;56152;49.996;18.980;2023-04-30T03:45:17;9.40;95.00
43647;DHT22;56152;49.996;18.980;2023-04-30T03:50:19;9.20;94.90
43647;DHT22;56152;49.996;18.980;2023-04-30T03:55:23;8.90;95.00
43647;DHT22;56152;49.996;18.980;2023-04-30T04:00:32;8.60;95.00
43647;DHT22;56152;49.996;18.980;2023-04-30T04:05:36;8.40;95.10
43647;DHT22;56152;49.996;18.980;2023-04-30T04:10:39;8.30;95.10
43647;DHT22;56152;49.996;18.980;2023-04-30T04:15:42;8.20;95.10
43647;DHT22;56152;49.996;18.980;2023-04-30T04:20:44;8.10;95.10
43647;DHT22;56152;49.996;18.980;2023-04-30T04:25:46;8.10;95.10
43647;DHT22;56152;49.996;18.980;2023-04-30T04:30:52;8.10;95.20
43647;DHT22;56152;49.996;18.980;2023-04-30T04:35:57;8.10;95.10
43647;DHT22;56152;49.996;18.980;2023-04-30T04:41:00;8.10;95.10
43647;DHT22;56152;49.996;18.980;2023-04-30T04:46:03;8.20;95.10
43647;DHT22;56152;49.996;18.980;2023-04-30T04:51:06;8.20;95.10
43647;DHT22;56152;49.996;18.980;2023-04-30T04:56:07;8.30;95.00
43647;DHT22;56152;49.996;18.980;2023-04-30T05:01:11;8.30;95.00
43647;DHT22;56152;49.996;18.980;2023-04-30T05:06:16;8.30;95.00
43647;DHT22;56152;49.996;18.980;2023-04-30T05:11:18;8.30;95.00
43647;DHT22;56152;49.996;18.980;2023-04-30T05:16:23;8.40;95.00
43647;DHT22;56152;49.996;18.980;2023-04-30T05:21:35;8.40;95.00
43647;DHT22;56152;49.996;18.980;2023-04-30T05:26:37;8.40;95.00
43647;DHT22;56152;49.996;18.980;2023-04-30T05:31:41;8.40;95.00
43647;DHT22;56152;49.996;18.980;2023-04-30T05:36:43;8.40;95.00
43647;DHT22;56152;49.996;18.980;2023-04-30T05:41:45;8.50;95.00
43647;DHT22;56152;49.996;18.980;2023-04-30T05:46:48;8.50;94.90
43647;DHT22;56152;49.996;18.980;2023-04-30T05:51:50;8.60;94.90
43647;DHT22;56152;49.996;18.980;2023-04-30T05:56:53;8.60;94.90
43647;DHT22;56152;49.996;18.980;2023-04-30T06:01:59;8.60;94.90
43647;DHT22;56152;49.996;18.980;2023-04-30T06:07:01;8.60;94.90
43647;DHT22;56152;49.996;18.980;2023-04-30T06:12:04;8.60;94.80
43647;DHT22;56152;49.996;18.980;2023-04-30T06:17:07;8.60;94.80
43647;DHT22;56152;49.996;18.980;2023-04-30T06:22:12;8.60;94.80
43647;DHT22;56152;49.996;18.980;2023-04-30T06:27:14;8.60;94.80
43647;DHT22;56152;49.996;18.980;2023-04-30T06:32:17;8.80;94.80
43647;DHT22;56152;49.996;18.980;2023-04-30T06:37:19;8.90;94.70
43647;DHT22;56152;49.996;18.980;2023-04-30T06:42:21;9.10;94.60
43647;DHT22;56152;49.996;18.980;2023-04-30T06:47:26;9.30;94.40
43647;DHT22;56152;49.996;18.980;2023-04-30T06:52:29;9.60;94.20
43647;DHT22;56152;49.996;18.980;2023-04-30T06:57:32;10.00;94.00
43647;DHT22;56152;49.996;18.980;2023-04-30T07:02:38;10.30;93.70
43647;DHT22;56152;49.996;18.980;2023-04-30T07:07:41;10.50;93.40
43647;DHT22;56152;49.996;18.980;2023-04-30T07:12:45;10.90;93.00
43647;DHT22;56152;49.996;18.980;2023-04-30T07:17:49;11.10;92.70
43647;DHT22;56152;49.996;18.980;2023-04-30T07:22:55;11.60;92.50
43647;DHT22;56152;49.996;18.980;2023-04-30T07:27:57;12.00;91.70
43647;DHT22;56152;49.996;18.980;2023-04-30T07:33:00;12.00;91.40
43647;DHT22;56152;49.996;18.980;2023-04-30T07:38:05;12.40;91.30
43647;DHT22;56152;49.996;18.980;2023-04-30T07:43:07;12.90;90.60
43647;DHT22;56152;49.996;18.980;2023-04-30T07:48:11;13.40;90.20
43647;DHT22;56152;49.996;18.980;2023-04-30T07:53:12;13.70;88.80
43647;DHT22;56152;49.996;18.980;2023-04-30T07:58:14;14.00;87.40
43647;DHT22;56152;49.996;18.980;2023-04-30T08:03:17;14.10;87.00
43647;DHT22;56152;49.996;18.980;2023-04-30T08:08:21;13.90;86.10
43647;DHT22;56152;49.996;18.980;2023-04-30T08:13:23;13.30;86.80
43647;DHT22;56152;49.996;18.980;2023-04-30T08:18:26;13.50;87.30
43647;DHT22;56152;49.996;18.980;2023-04-30T08:23:32;13.50;86.40
43647;DHT22;56152;49.996;18.980;2023-04-30T08:28:37;13.70;86.00
43647;DHT22;56152;49.996;18.980;2023-04-30T08:33:41;13.70;84.40
43647;DHT22;56152;49.996;18.980;2023-04-30T08:38:44;13.50;84.20
43647;DHT22;56152;49.996;18.980;2023-04-30T08:43:47;13.40;84.20
43647;DHT22;56152;49.996;18.980;2023-04-30T08:48:55;14.20;83.70
43647;DHT22;56152;49.996;18.980;2023-04-30T08:53:58;15.00;81.60
43647;DHT22;56152;49.996;18.980;2023-04-30T08:59:01;14.80;79.80
43647;DHT22;56152;49.996;18.980;2023-04-30T09:04:05;14.60;79.70
43647;DHT22;56152;49.996;18.980;2023-04-30T09:09:10;15.00;80.00
43647;DHT22;56152;49.996;18.980;2023-04-30T09:14:23;15.30;78.10
43647;DHT22;56152;49.996;18.980;2023-04-30T09:19:41;15.80;76.90
43647;DHT22;56152;49.996;18.980;2023-04-30T09:24:46;16.10;75.10
43647;DHT22;56152;49.996;18.980;2023-04-30T09:29:49;16.00;74.40
43647;DHT22;56152;49.996;18.980;2023-04-30T09:34:54;15.40;74.60
43647;DHT22;56152;49.996;18.980;2023-04-30T09:39:57;15.30;76.00
43647;DHT22;56152;49.996;18.980;2023-04-30T09:45:04;15.90;75.20
43647;DHT22;56152;49.996;18.980;2023-04-30T09:50:13;16.40;72.60
43647;DHT22;56152;49.996;18.980;2023-04-30T09:55:15;15.90;71.70
43647;DHT22;56152;49.996;18.980;2023-04-30T10:00:18;15.70;73.10
43647;DHT22;56152;49.996;18.980;2023-04-30T10:05:24;16.30;72.40
43647;DHT22;56152;49.996;18.980;2023-04-30T10:10:28;16.90;69.90
43647;DHT22;56152;49.996;18.980;2023-04-30T10:15:37;16.50;69.90
43647;DHT22;56152;49.996;18.980;2023-04-30T10:20:41;16.80;70.00
43647;DHT22;56152;49.996;18.980;2023-04-30T10:25:46;17.40;68.20
43647;DHT22;56152;49.996;18.980;2023-04-30T10:30:50;17.60;67.30
43647;DHT22;56152;49.996;18.980;2023-04-30T10:35:57;17.80;66.20
43647;DHT22;56152;49.996;18.980;2023-04-30T10:41:05;17.90;64.40
43647;DHT22;56152;49.996;18.980;2023-04-30T10:46:09;17.60;64.70
43647;DHT22;56152;49.996;18.980;2023-04-30T10:51:18;17.60;64.90
43647;DHT22;56152;49.996;18.980;2023-04-30T10:56:29;17.90;63.60
43647;DHT22;56152;49.996;18.980;2023-04-30T11:01:53;17.30;64.60
43647;DHT22;56152;49.996;18.980;2023-04-30T11:07:07;17.40;64.00
43647;DHT22;56152;49.996;18.980;2023-04-30T11:12:12;17.70;63.00
43647;DHT22;56152;49.996;18.980;2023-04-30T11:17:21;18.00;63.30
43647;DHT22;56152;49.996;18.980;2023-04-30T11:22:25;18.40;61.70
43647;DHT22;56152;49.996;18.980;2023-04-30T11:27:33;18.90;57.90
43647;DHT22;56152;49.996;18.980;2023-04-30T11:32:37;19.00;61.20
43647;DHT22;56152;49.996;18.980;2023-04-30T11:37:43;19.00;59.80
43647;DHT22;56152;49.996;18.980;2023-04-30T11:42:46;19.00;60.20
43647;DHT22;56152;49.996;18.980;2023-04-30T11:47:50;18.90;59.60
43647;DHT22;56152;49.996;18.980;2023-04-30T11:52:56;19.00;58.90
43647;DHT22;56152;49.996;18.980;2023-04-30T11:58:01;19.10;58.30
43647;DHT22;56152;49.996;18.980;2023-04-30T12:03:07;19.20;58.40
43647;DHT22;56152;49.996;18.980;2023-04-30T12:08:11;19.30;57.50
43647;DHT22;56152;49.996;18.980;2023-04-30T12:13:18;19.50;57.90
43647;DHT22;56152;49.996;18.980;2023-04-30T12:18:28;19.50;57.90
43647;DHT22;56152;49.996;18.980;2023-04-30T12:23:33;19.40;57.00
43647;DHT22;56152;49.996;18.980;2023-04-30T12:28:36;19.40;56.40
43647;DHT22;56152;49.996;18.980;2023-04-30T12:33:38;19.40;56.30
43647;DHT22;56152;49.996;18.980;2023-04-30T12:38:46;19.40;56.40
43647;DHT22;56152;49.996;18.980;2023-04-30T12:43:49;19.30;55.30
43647;DHT22;56152;49.996;18.980;2023-04-30T12:48:53;19.30;55.10
43647;DHT22;56152;49.996;18.980;2023-04-30T12:54:02;19.20;54.50
43647;DHT22;56152;49.996;18.980;2023-04-30T12:59:14;19.10;54.80
43647;DHT22;56152;49.996;18.980;2023-04-30T13:04:17;19.20;54.70
43647;DHT22;56152;49.996;18.980;2023-04-30T13:09:26;19.60;54.50
43647;DHT22;56152;49.996;18.980;2023-04-30T13:14:28;19.50;53.80
43647;DHT22;56152;49.996;18.980;2023-04-30T13:19:38;19.20;53.30
43647;DHT22;56152;49.996;18.980;2023-04-30T13:24:44;18.90;53.90
43647;DHT22;56152;49.996;18.980;2023-04-30T13:29:50;19.10;53.70
43647;DHT22;56152;49.996;18.980;2023-04-30T13:34:55;19.20;54.00
43647;DHT22;56152;49.996;18.980;2023-04-30T13:40:00;19.50;53.70
43647;DHT22;56152;49.996;18.980;2023-04-30T13:45:06;19.80;52.80
43647;DHT22;56152;49.996;18.980;2023-04-30T13:50:08;19.40;52.20
43647;DHT22;56152;49.996;18.980;2023-04-30T13:55:13;19.20;52.70
43647;DHT22;56152;49.996;18.980;2023-04-30T14:00:16;19.30;52.90
43647;DHT22;56152;49.996;18.980;2023-04-30T14:05:25;19.40;53.10
43647;DHT22;56152;49.996;18.980;2023-04-30T14:10:35;19.70;52.70
43647;DHT22;56152;49.996;18.980;2023-04-30T14:15:41;20.20;52.30
43647;DHT22;56152;49.996;18.980;2023-04-30T14:20:44;20.40;51.50
43647;DHT22;56152;49.996;18.980;2023-04-30T14:25:49;20.60;51.40
43647;DHT22;56152;49.996;18.980;2023-04-30T14:30:53;20.60;50.40
43647;DHT22;56152;49.996;18.980;2023-04-30T14:35:55;20.70;50.40
43647;DHT22;56152;49.996;18.980;2023-04-30T14:41:02;20.70;50.20
43647;DHT22;56152;49.996;18.980;2023-04-30T14:46:05;20.50;49.80
43647;DHT22;56152;49.996;18.980;2023-04-30T14:51:09;20.60;49.90
43647;DHT22;56152;49.996;18.980;2023-04-30T14:56:12;20.40;50.10
43647;DHT22;56152;49.996;18.980;2023-04-30T15:01:28;20.10;50.20
43647;DHT22;56152;49.996;18.980;2023-04-30T15:06:31;19.70;50.30
43647;DHT22;56152;49.996;18.980;2023-04-30T15:11:35;19.60;51.10
43647;DHT22;56152;49.996;18.980;2023-04-30T15:16:40;19.40;50.80
43647;DHT22;56152;49.996;18.980;2023-04-30T15:21:42;19.60;51.10
43647;DHT22;56152;49.996;18.980;2023-04-30T15:26:48;19.70;49.60
43647;DHT22;56152;49.996;18.980;2023-04-30T15:31:53;19.60;50.20
43647;DHT22;56152;49.996;18.980;2023-04-30T15:36:55;20.00;50.00
43647;DHT22;56152;49.996;18.980;2023-04-30T15:42:02;20.10;49.90
43647;DHT22;56152;49.996;18.980;2023-04-30T15:47:04;20.10;49.80
43647;DHT22;56152;49.996;18.980;2023-04-30T15:52:07;20.40;49.20
43647;DHT22;56152;49.996;18.980;2023-04-30T15:57:11;20.50;48.70
43647;DHT22;56152;49.996;18.980;2023-04-30T16:02:13;20.40;48.40
43647;DHT22;56152;49.996;18.980;2023-04-30T16:07:15;20.10;48.70
43647;DHT22;56152;49.996;18.980;2023-04-30T16:12:18;20.00;49.00
43647;DHT22;56152;49.996;18.980;2023-04-30T16:17:20;19.90;49.00
43647;DHT22;56152;49.996;18.980;2023-04-30T16:22:23;19.50;48.40
43647;DHT22;56152;49.996;18.980;2023-04-30T16:27:28;18.80;48.20
43647;DHT22;56152;49.996;18.980;2023-04-30T16:32:30;18.10;49.50
43647;DHT22;56152;49.996;18.980;2023-04-30T16:37:32;17.90;50.60
43647;DHT22;56152;49.996;18.980;2023-04-30T16:42:35;18.00;50.30
43647;DHT22;56152;49.996;18.980;2023-04-30T16:47:40;17.90;49.90
43647;DHT22;56152;49.996;18.980;2023-04-30T16:52:42;17.70;49.50
43647;DHT22;56152;49.996;18.980;2023-04-30T16:57:49;17.30;49.40
43647;DHT22;56152;49.996;18.980;2023-04-30T17:02:51;16.80;49.50
43647;DHT22;56152;49.996;18.980;2023-04-30T17:07:53;16.20;50.10
43647;DHT22;56152;49.996;18.980;2023-04-30T17:12:57;15.50;50.30
43647;DHT22;56152;49.996;18.980;2023-04-30T17:18:06;15.10;51.30
43647;DHT22;56152;49.996;18.980;2023-04-30T17:23:09;14.70;51.70
43647;DHT22;56152;49.996;18.980;2023-04-30T17:28:15;14.40;52.00
43647;DHT22;56152;49.996;18.980;2023-04-30T17:33:17;14.00;52.20
43647;DHT22;56152;49.996;18.980;2023-04-30T17:38:19;13.70;52.30
43647;DHT22;56152;49.996;18.980;2023-04-30T17:43:28;13.50;52.80
43647;DHT22;56152;49.996;18.980;2023-04-30T17:48:30;13.20;53.20
43647;DHT22;56152;49.996;18.980;2023-04-30T17:53:35;13.00;53.70
43647;DHT22;56152;49.996;18.980;2023-04-30T17:58:38;12.70;54.40
43647;DHT22;56152;49.996;18.980;2023-04-30T18:03:40;12.40;54.70
43647;DHT22;56152;49.996;18.980;2023-04-30T18:08:43;12.10;55.20
43647;DHT22;56152;49.996;18.980;2023-04-30T18:13:48;11.90;55.40
43647;DHT22;56152;49.996;18.980;2023-04-30T18:18:50;11.70;55.70
43647;DHT22;56152;49.996;18.980;2023-04-30T18:23:53;11.50;56.10
43647;DHT22;56152;49.996;18.980;2023-04-30T18:28:57;11.30;56.60
43647;DHT22;56152;49.996;18.980;2023-04-30T18:33:59;11.10;56.80
43647;DHT22;56152;49.996;18.980;2023-04-30T18:39:01;10.90;57.00
43647;DHT22;56152;49.996;18.980;2023-04-30T18:44:09;10.70;57.30
43647;DHT22;56152;49.996;18.980;2023-04-30T18:49:13;10.60;57.40
43647;DHT22;56152;49.996;18.980;2023-04-30T18:54:15;10.40;57.60
43647;DHT22;56152;49.996;18.980;2023-04-30T18:59:20;10.30;57.80
43647;DHT22;56152;49.996;18.980;2023-04-30T19:04:22;10.10;58.10
43647;DHT22;56152;49.996;18.980;2023-04-30T19:09:24;9.90;58.50
43647;DHT22;56152;49.996;18.980;2023-04-30T19:14:28;9.70;58.80
43647;DHT22;56152;49.996;18.980;2023-04-30T19:19:31;9.60;59.30
43647;DHT22;56152;49.996;18.980;2023-04-30T19:24:33;9.40;60.40
43647;DHT22;56152;49.996;18.980;2023-04-30T19:29:37;9.30;60.00
43647;DHT22;56152;49.996;18.980;2023-04-30T19:34:39;9.10;60.30
43647;DHT22;56152;49.996;18.980;2023-04-30T19:39:41;8.90;60.60
43647;DHT22;56152;49.996;18.980;2023-04-30T19:44:45;8.80;60.80
43647;DHT22;56152;49.996;18.980;2023-04-30T19:49:47;8.60;61.00
43647;DHT22;56152;49.996;18.980;2023-04-30T19:54:49;8.50;61.20
43647;DHT22;56152;49.996;18.980;2023-04-30T19:59:58;8.40;61.40
43647;DHT22;56152;49.996;18.980;2023-04-30T20:05:01;8.20;61.50
43647;DHT22;56152;49.996;18.980;2023-04-30T20:10:08;8.10;61.70
43647;DHT22;56152;49.996;18.980;2023-04-30T20:15:13;8.00;61.90
43647;DHT22;56152;49.996;18.980;2023-04-30T20:20:15;7.90;62.20
43647;DHT22;56152;49.996;18.980;2023-04-30T20:25:20;7.80;62.50
43647;DHT22;56152;49.996;18.980;2023-04-30T20:30:23;7.70;62.80
43647;DHT22;56152;49.996;18.980;2023-04-30T20:35:26;7.60;63.20
43647;DHT22;56152;49.996;18.980;2023-04-30T20:40:28;7.50;63.40
43647;DHT22;56152;49.996;18.980;2023-04-30T20:45:32;7.40;63.60
43647;DHT22;56152;49.996;18.980;2023-04-30T20:50:34;7.30;64.10
43647;DHT22;56152;49.996;18.980;2023-04-30T20:55:36;7.10;64.40
43647;DHT22;56152;49.996;18.980;2023-04-30T21:00:40;7.00;64.90
43647;DHT22;56152;49.996;18.980;2023-04-30T21:05:42;6.90;65.30
43647;DHT22;56152;49.996;18.980;2023-04-30T21:10:49;6.70;65.60
43647;DHT22;56152;49.996;18.980;2023-04-30T21:15:56;6.50;65.80
43647;DHT22;56152;49.996;18.980;2023-04-30T21:21:01;6.40;66.20
43647;DHT22;56152;49.996;18.980;2023-04-30T21:26:07;6.30;66.50
43647;DHT22;56152;49.996;18.980;2023-04-30T21:31:11;6.10;66.80
43647;DHT22;56152;49.996;18.980;2023-04-30T21:36:14;5.90;67.20
43647;DHT22;56152;49.996;18.980;2023-04-30T21:41:17;5.80;67.70
43647;DHT22;56152;49.996;18.980;2023-04-30T21:46:26;5.70;68.20
43647;DHT22;56152;49.996;18.980;2023-04-30T21:51:28;5.60;68.20
43647;DHT22;56152;49.996;18.980;2023-04-30T21:56:33;5.50;68.50
43647;DHT22;56152;49.996;18.980;2023-04-30T22:01:37;5.30;69.00
43647;DHT22;56152;49.996;18.980;2023-04-30T22:06:39;5.20;69.20
43647;DHT22;56152;49.996;18.980;2023-04-30T22:11:42;5.20;69.50
43647;DHT22;56152;49.996;18.980;2023-04-30T22:16:51;5.10;69.70
43647;DHT22;56152;49.996;18.980;2023-04-30T22:21:53;5.10;69.90
43647;DHT22;56152;49.996;18.980;2023-04-30T22:26:55;5.00;70.10
43647;DHT22;56152;49.996;18.980;2023-04-30T22:31:58;4.90;70.30
43647;DHT22;56152;49.996;18.980;2023-04-30T22:37:00;4.80;70.50
43647;DHT22;56152;49.996;18.980;2023-04-30T22:42:07;4.60;70.70
43647;DHT22;56152;49.996;18.980;2023-04-30T22:47:12;4.60;71.00
43647;DHT22;56152;49.996;18.980;2023-04-30T22:52:16;4.50;71.20
43647;DHT22;56152;49.996;18.980;2023-04-30T22:57:19;4.40;71.30
43647;DHT22;56152;49.996;18.980;2023-04-30T23:02:24;4.30;71.40
43647;DHT22;56152;49.996;18.980;2023-04-30T23:07:29;4.20;71.70
43647;DHT22;56152;49.996;18.980;2023-04-30T23:12:32;4.10;71.90
43647;DHT22;56152;49.996;18.980;2023-04-30T23:17:35;4.00;72.20
43647;DHT22;56152;49.996;18.980;2023-04-30T23:22:38;3.90;72.40
43647;DHT22;56152;49.996;18.980;2023-04-30T23:27:41;3.80;72.80
43647;DHT22;56152;49.996;18.980;2023-04-30T23:32:46;3.80;73.10
43647;DHT22;56152;49.996;18.980;2023-04-30T23:37:48;3.70;73.20
43647;DHT22;56152;49.996;18.980;2023-04-30T23:42:50;3.50;73.40
43647;DHT22;56152;49.996;18.980;2023-04-30T23:47:53;3.40;73.60
43647;DHT22;56152;49.996;18.980;2023-04-30T23:52:59;3.30;73.90
43647;DHT22;56152;49.996;18.980;2023-04-30T23:58:01;3.30;74.20
